Time;durP1;ratioP1;P1;durP2;ratioP2;P2;SDS_P1;SDS_P2;PMS_P1;PMS_P2;Temp;Humidity;BMP_temperature;BMP_pressure;BME280_temperature;BME280_humidity;BME280_pressure;Samples;Min_cycle;Max_cycle;Signal;HPM_P1;HPM_P2
2022/10/18 04:02:00;;;;;;;0.60;0.10;;;18.40;1.00;;;;;;5364161;23;20506;-73
2022/10/18 04:04:29;;;;;;;0.60;0.10;;;18.30;1.00;;;;;;4969243;28;20469;-73
2022/10/18 04:06:57;;;;;;;0.60;0.10;;;18.20;1.00;;;;;;4962238;28;20554;-74
2022/10/18 04:09:25;;;;;;;0.60;0.10;;;18.20;1.00;;;;;;4975644;28;20998;-73
2022/10/18 04:11:53;;;;;;;0.60;0.10;;;18.20;1.00;;;;;;4949593;28;20460;-73
2022/10/18 04:14:20;;;;;;;0.60;0.10;;;18.20;1.00;;;;;;4936912;29;20455;-71
2022/10/18 04:16:48;;;;;;;0.60;0.10;;;18.10;1.00;;;;;;4938251;29;20451;-73
2022/10/18 04:19:18;;;;;;;0.60;0.10;;;18.10;1.00;;;;;;4937781;29;20597;-72
2022/10/18 04:21:45;;;;;;;0.60;0.10;;;18.00;1.00;;;;;;4937191;29;20506;-72
2022/10/18 04:24:13;;;;;;;0.60;0.10;;;18.00;1.00;;;;;;4943266;29;20487;-72
2022/10/18 04:26:41;;;;;;;0.60;0.13;;;17.90;1.00;;;;;;4936848;29;20497;-73
2022/10/18 04:29:09;;;;;;;0.60;0.10;;;17.90;1.00;;;;;;4936669;29;20514;-71
2022/10/18 04:31:37;;;;;;;0.60;0.10;;;18.00;1.00;;;;;;4937052;29;20496;-72
2022/10/18 04:34:05;;;;;;;0.60;0.10;;;18.00;1.00;;;;;;4936414;29;20448;-72
2022/10/18 04:36:34;;;;;;;0.60;0.10;;;18.00;1.00;;;;;;4948656;29;20472;-72
2022/10/18 04:39:03;;;;;;;0.60;0.10;;;18.00;1.00;;;;;;4949391;29;20898;-72
2022/10/18 04:41:30;;;;;;;0.60;0.10;;;18.00;1.00;;;;;;4960431;28;20470;-72
2022/10/18 04:43:58;;;;;;;0.60;0.13;;;18.00;1.00;;;;;;4962045;29;20475;-73
2022/10/18 04:46:26;;;;;;;0.60;0.10;;;18.00;1.00;;;;;;4959323;29;20462;-72
2022/10/18 04:48:54;;;;;;;0.60;0.17;;;17.90;1.00;;;;;;4955904;29;20483;-71
2022/10/18 04:51:22;;;;;;;0.60;0.10;;;18.00;1.00;;;;;;4955805;29;20980;-74
2022/10/18 04:53:51;;;;;;;0.60;0.13;;;17.90;1.00;;;;;;4956356;29;20463;-72
2022/10/18 04:56:19;;;;;;;0.60;0.10;;;18.00;1.00;;;;;;4955322;29;20517;-74
2022/10/18 04:58:47;;;;;;;0.60;0.10;;;18.00;1.00;;;;;;4955207;29;20960;-72
2022/10/18 05:01:16;;;;;;;0.60;0.10;;;18.00;1.00;;;;;;4948970;29;20537;-72
2022/10/18 05:03:43;;;;;;;0.60;0.10;;;18.00;1.00;;;;;;4946920;28;20514;-73
2022/10/18 05:06:11;;;;;;;0.60;0.10;;;18.00;1.00;;;;;;4955655;29;20954;-73
2022/10/18 05:08:39;;;;;;;0.60;0.10;;;18.00;1.00;;;;;;4950077;29;20526;-72
2022/10/18 05:11:08;;;;;;;0.60;0.20;;;18.00;1.00;;;;;;4946333;29;20483;-72
2022/10/18 05:13:37;;;;;;;0.60;0.10;;;18.00;1.00;;;;;;4943925;29;20452;-73
2022/10/18 05:16:06;;;;;;;0.60;0.10;;;18.00;1.00;;;;;;4936505;29;20815;-73
2022/10/18 05:18:33;;;;;;;0.60;0.20;;;18.00;1.00;;;;;;4935877;29;20513;-73
2022/10/18 05:21:01;;;;;;;0.60;0.20;;;18.00;1.00;;;;;;4950740;29;20503;-72
2022/10/18 05:23:29;;;;;;;0.60;0.13;;;18.00;1.00;;;;;;4954977;29;20581;-72
2022/10/18 05:26:01;;;;;;;0.60;0.10;;;18.00;1.00;;;;;;4955518;29;20458;-71
2022/10/18 05:28:30;;;;;;;0.60;0.20;;;18.00;1.00;;;;;;4955545;29;20439;-73
2022/10/18 05:31:10;;;;;;;0.60;0.10;;;18.00;1.00;;;;;;4954791;28;20503;-72
2022/10/18 05:33:38;;;;;;;0.60;0.10;;;17.90;1.00;;;;;;4954620;29;20451;-72
2022/10/18 05:36:09;;;;;;;0.60;0.10;;;17.90;1.00;;;;;;4948357;29;20459;-72
2022/10/18 05:38:41;;;;;;;0.60;0.10;;;18.00;1.00;;;;;;4947289;29;20474;-74
2022/10/18 05:41:11;;;;;;;0.60;0.10;;;17.90;1.00;;;;;;4955463;28;20554;-72
2022/10/18 05:43:40;;;;;;;0.60;0.10;;;17.90;1.00;;;;;;4953141;29;20491;-72
2022/10/18 05:46:11;;;;;;;0.60;0.10;;;17.90;1.00;;;;;;4947941;29;20452;-71
2022/10/18 05:48:43;;;;;;;0.60;0.20;;;17.90;1.00;;;;;;4955639;29;20457;-73
2022/10/18 05:51:11;;;;;;;0.60;0.10;;;17.90;1.00;;;;;;4956536;28;20474;-71
2022/10/18 05:53:39;;;;;;;0.60;0.20;;;17.80;1.00;;;;;;4957456;29;20447;-73
2022/10/18 05:56:07;;;;;;;0.60;0.10;;;17.80;1.00;;;;;;4956545;29;20486;-72
2022/10/18 05:58:36;;;;;;;0.60;0.10;;;17.80;1.00;;;;;;4956520;29;20451;-72
2022/10/18 06:01:06;;;;;;;0.60;0.10;;;17.30;1.00;;;;;;4953158;29;20549;-73
2022/10/18 06:03:34;;;;;;;0.60;0.10;;;17.70;1.00;;;;;;4954364;29;21003;-72
2022/10/18 06:06:02;;;;;;;0.60;0.10;;;17.70;1.00;;;;;;4951948;29;20473;-74
2022/10/18 06:08:31;;;;;;;0.60;0.10;;;17.70;1.00;;;;;;4955188;29;20521;-72
2022/10/18 06:10:59;;;;;;;0.60;0.10;;;17.80;1.00;;;;;;4952539;28;20479;-73
2022/10/18 06:13:26;;;;;;;0.60;0.10;;;17.80;1.00;;;;;;4945409;29;20455;-73
2022/10/18 06:15:59;;;;;;;0.60;0.10;;;17.70;1.00;;;;;;4948934;28;20946;-71
2022/10/18 06:18:28;;;;;;;0.70;0.37;;;17.80;1.00;;;;;;4955438;29;20510;-70
2022/10/18 06:20:57;;;;;;;0.60;0.10;;;17.50;1.00;;;;;;4954577;28;20637;-71
2022/10/18 06:23:26;;;;;;;0.60;0.10;;;17.50;1.00;;;;;;4956197;29;20483;-73
2022/10/18 06:25:54;;;;;;;0.60;0.10;;;17.50;1.00;;;;;;4958678;29;20466;-71
2022/10/18 06:28:21;;;;;;;0.60;0.10;;;17.50;1.00;;;;;;4953145;29;20444;-72
2022/10/18 06:30:49;;;;;;;0.60;0.10;;;17.50;1.00;;;;;;4950276;29;20889;-72
2022/10/18 06:33:18;;;;;;;0.60;0.10;;;17.50;1.00;;;;;;4953518;29;20501;-73
2022/10/18 06:35:55;;;;;;;0.60;0.10;;;17.50;1.00;;;;;;4943129;29;20570;-72
2022/10/18 06:38:23;;;;;;;0.60;0.10;;;17.60;1.00;;;;;;4947773;29;20847;-71
2022/10/18 06:40:51;;;;;;;0.60;0.10;;;17.60;1.00;;;;;;4950985;29;20480;-73
2022/10/18 06:43:19;;;;;;;0.60;0.10;;;17.60;1.00;;;;;;4945574;29;20447;-71
2022/10/18 06:45:48;;;;;;;0.60;0.10;;;17.60;1.00;;;;;;4953735;29;20546;-72
2022/10/18 06:48:16;;;;;;;0.60;0.10;;;17.70;1.00;;;;;;4955094;29;20712;-72
2022/10/18 06:50:52;;;;;;;0.60;0.10;;;17.70;1.00;;;;;;4954655;29;20506;-72
2022/10/18 06:53:21;;;;;;;0.60;0.20;;;17.70;1.00;;;;;;4953535;29;20478;-72
2022/10/18 06:55:49;;;;;;;0.60;0.10;;;17.70;1.00;;;;;;4955162;29;20805;-71
2022/10/18 06:58:17;;;;;;;0.60;0.10;;;17.70;1.00;;;;;;4956316;29;20463;-72
2022/10/18 07:00:45;;;;;;;0.60;0.10;;;17.70;1.00;;;;;;4954470;28;20451;-72
2022/10/18 07:03:13;;;;;;;0.60;0.10;;;17.70;1.00;;;;;;4953969;29;20977;-72
2022/10/18 07:05:41;;;;;;;0.60;0.10;;;17.70;1.00;;;;;;4954209;29;21021;-73
2022/10/18 07:08:09;;;;;;;0.60;0.10;;;17.60;1.00;;;;;;4954104;29;20766;-73
2022/10/18 07:10:38;;;;;;;0.60;0.10;;;17.60;1.00;;;;;;4953308;28;20480;-72
2022/10/18 07:13:06;;;;;;;0.60;0.20;;;17.50;1.00;;;;;;4953261;29;20447;-72
2022/10/18 07:16:01;;;;;;;0.60;0.10;;;17.50;1.00;;;;;;4953203;29;20526;-71
2022/10/18 07:18:29;;;;;;;0.60;0.10;;;17.50;1.00;;;;;;4954728;29;20459;-71
2022/10/18 07:20:57;;;;;;;0.60;0.10;;;17.60;1.00;;;;;;4956153;28;20474;-71
2022/10/18 07:23:24;;;;;;;0.60;0.10;;;17.60;1.00;;;;;;4957550;29;20846;-71
2022/10/18 07:25:54;;;;;;;0.60;0.10;;;17.60;1.00;;;;;;4954935;29;20808;-71
2022/10/18 07:28:21;;;;;;;0.60;0.10;;;17.60;1.00;;;;;;4957409;28;20455;-71
2022/10/18 07:30:49;;;;;;;0.60;0.13;;;17.70;1.00;;;;;;4957401;28;20471;-71
2022/10/18 07:33:19;;;;;;;0.60;0.10;;;17.70;1.00;;;;;;4956826;29;20455;-72
2022/10/18 07:35:47;;;;;;;0.60;0.10;;;17.70;1.00;;;;;;4957006;29;20502;-71
2022/10/18 07:38:15;;;;;;;0.60;0.20;;;17.80;1.00;;;;;;4957894;29;20451;-70
2022/10/18 07:40:42;;;;;;;0.60;0.10;;;17.80;1.00;;;;;;4957101;29;20514;-71
2022/10/18 07:43:11;;;;;;;0.60;0.20;;;17.80;1.00;;;;;;4956651;29;20505;-71
2022/10/18 07:45:39;;;;;;;0.60;0.10;;;17.80;1.00;;;;;;4959419;29;20486;-72
2022/10/18 07:48:07;;;;;;;0.60;0.10;;;18.40;1.00;;;;;;4957530;29;20490;-71
2022/10/18 07:50:36;;;;;;;0.60;0.13;;;17.70;1.00;;;;;;4958186;28;20497;-73
2022/10/18 07:53:04;;;;;;;0.60;0.10;;;17.70;1.00;;;;;;4957281;29;20454;-73
2022/10/18 07:55:31;;;;;;;0.60;0.10;;;17.80;1.00;;;;;;4958279;29;20439;-71
2022/10/18 07:58:00;;;;;;;0.60;0.10;;;17.80;1.00;;;;;;4959034;29;20513;-72
2022/10/18 08:00:29;;;;;;;0.60;0.10;;;17.90;1.00;;;;;;4960333;28;20803;-74
2022/10/18 08:02:58;;;;;;;0.60;0.10;;;17.90;1.00;;;;;;4957766;29;20514;-71
2022/10/18 08:05:27;;;;;;;0.60;0.10;;;17.90;1.00;;;;;;4958131;29;20529;-71
2022/10/18 08:07:55;;;;;;;0.60;0.10;;;17.90;1.00;;;;;;4957208;29;20542;-71
2022/10/18 08:10:23;;;;;;;0.60;0.10;;;18.00;1.00;;;;;;4953590;29;20464;-70
2022/10/18 08:12:51;;;;;;;0.60;0.10;;;18.00;1.00;;;;;;4951759;29;20513;-70
2022/10/18 08:15:22;;;;;;;0.60;0.10;;;18.00;1.00;;;;;;4947413;29;20510;-70
2022/10/18 08:17:52;;;;;;;0.60;0.10;;;18.10;1.00;;;;;;4954136;29;20502;-72
2022/10/18 08:20:20;;;;;;;0.60;0.20;;;18.10;1.00;;;;;;4956430;29;20514;-71
2022/10/18 08:22:57;;;;;;;0.60;0.10;;;18.10;1.00;;;;;;4956314;29;20817;-72
2022/10/18 08:25:27;;;;;;;0.60;0.10;;;18.10;1.00;;;;;;4956735;29;20483;-72
2022/10/18 08:27:56;;;;;;;0.60;0.10;;;18.20;1.00;;;;;;4956231;29;20506;-72
2022/10/18 08:30:23;;;;;;;0.60;0.10;;;18.30;1.00;;;;;;4956150;29;20474;-71
2022/10/18 08:32:53;;;;;;;0.60;0.10;;;18.30;1.00;;;;;;4949685;29;21046;-71
2022/10/18 08:35:22;;;;;;;0.60;0.13;;;18.30;1.00;;;;;;4946178;29;20507;-71
2022/10/18 08:37:50;;;;;;;0.60;0.10;;;18.30;1.00;;;;;;4949520;29;20502;-72
2022/10/18 08:40:19;;;;;;;0.60;0.10;;;18.40;1.00;;;;;;4947014;28;20861;-73
2022/10/18 08:43:02;;;;;;;0.60;0.10;;;18.40;1.00;;;;;;4948534;29;21019;-74
2022/10/18 08:45:33;;;;;;;0.60;0.10;;;18.40;1.00;;;;;;4956024;29;20483;-73
2022/10/18 08:48:21;;;;;;;0.60;0.10;;;18.40;1.00;;;;;;4956362;29;20459;-71
2022/10/18 08:50:50;;;;;;;0.60;0.10;;;18.40;1.00;;;;;;4955867;28;20471;-72
2022/10/18 08:53:25;;;;;;;0.60;0.10;;;18.40;1.00;;;;;;4955671;29;20510;-72
2022/10/18 08:55:58;;;;;;;0.60;0.10;;;18.40;1.00;;;;;;4956065;29;20451;-72
2022/10/18 08:58:29;;;;;;;0.60;0.20;;;18.30;1.00;;;;;;4949143;29;20451;-71
2022/10/18 09:01:05;;;;;;;0.60;0.10;;;18.30;1.00;;;;;;4955623;29;20989;-71
2022/10/18 09:03:51;;;;;;;0.60;0.10;;;18.30;1.00;;;;;;4956343;29;20457;-72
2022/10/18 09:06:25;;;;;;;0.60;0.10;;;18.30;1.00;;;;;;4955735;29;20479;-71
2022/10/18 09:09:07;;;;;;;0.60;0.20;;;18.30;1.00;;;;;;4954828;29;20525;-71
2022/10/18 09:11:47;;;;;;;0.60;0.10;;;18.30;1.00;;;;;;4955889;28;20578;-73
2022/10/18 09:14:36;;;;;;;0.60;0.10;;;18.30;1.00;;;;;;4955775;29;20458;-72
2022/10/18 09:17:14;;;;;;;0.60;0.10;;;18.30;1.00;;;;;;4919579;29;20467;-70
2022/10/18 09:19:54;;;;;;;0.60;0.20;;;18.30;1.00;;;;;;4936720;29;20447;-71
2022/10/18 09:22:32;;;;;;;1.63;1.07;;;18.40;1.00;;;;;;4945148;28;20519;-70
2022/10/18 09:25:09;;;;;;;0.60;0.10;;;18.40;1.00;;;;;;4955271;29;20482;-72
2022/10/18 09:27:47;;;;;;;0.60;0.20;;;18.50;1.00;;;;;;4955433;29;20864;-72
2022/10/18 09:30:25;;;;;;;0.60;0.10;;;18.50;1.00;;;;;;4957700;29;20478;-71
2022/10/18 09:33:00;;;;;;;0.60;0.20;;;18.50;1.00;;;;;;4955854;29;20518;-71
2022/10/18 09:35:34;;;;;;;0.70;0.40;;;18.60;1.00;;;;;;4949355;29;20455;-71
2022/10/18 09:38:05;;;;;;;0.60;0.10;;;18.60;1.00;;;;;;4944159;29;20448;-70
2022/10/18 09:40:38;;;;;;;0.60;0.10;;;18.70;1.00;;;;;;4948579;29;20555;-70
2022/10/18 09:43:12;;;;;;;0.60;0.10;;;18.70;1.00;;;;;;4954250;29;20498;-70
2022/10/18 09:45:42;;;;;;;0.87;0.40;;;18.70;1.00;;;;;;4957028;29;20475;-73
2022/10/18 09:48:14;;;;;;;0.60;0.13;;;18.70;1.00;;;;;;4948849;29;20498;-72
2022/10/18 09:50:46;;;;;;;0.60;0.10;;;18.60;1.00;;;;;;4949870;29;20513;-71
2022/10/18 09:53:20;;;;;;;0.60;0.10;;;18.60;1.00;;;;;;4950316;29;20461;-71
2022/10/18 09:55:59;;;;;;;0.60;0.10;;;18.60;1.00;;;;;;4953221;29;20445;-73
2022/10/18 09:58:35;;;;;;;0.60;0.10;;;18.70;1.00;;;;;;4942889;29;20451;-73
2022/10/18 10:01:03;;;;;;;0.60;0.10;;;18.80;1.00;;;;;;4955104;28;20479;-73
2022/10/18 10:03:31;;;;;;;0.60;0.10;;;18.80;1.00;;;;;;4954250;29;20868;-72
2022/10/18 10:06:24;;;;;;;0.60;0.10;;;18.90;1.00;;;;;;4949760;29;20515;-72
2022/10/18 10:09:01;;;;;;;0.60;0.10;;;19.00;1.00;;;;;;4937528;29;20483;-72
2022/10/18 10:11:35;;;;;;;0.60;0.10;;;19.10;1.00;;;;;;4957435;28;20525;-71
2022/10/18 10:14:14;;;;;;;0.60;0.10;;;19.20;1.00;;;;;;4954480;29;20497;-71
2022/10/18 10:16:48;;;;;;;0.60;0.10;;;19.20;1.00;;;;;;4952194;29;20451;-71
2022/10/18 10:19:27;;;;;;;0.60;0.10;;;19.20;1.00;;;;;;4946679;29;20452;-72
2022/10/18 10:22:06;;;;;;;0.60;0.20;;;19.20;1.00;;;;;;4946816;28;20463;-72
2022/10/18 10:24:42;;;;;;;0.60;0.10;;;19.20;1.00;;;;;;4936029;29;20470;-73
2022/10/18 10:27:20;;;;;;;0.60;0.10;;;19.20;1.00;;;;;;4935637;29;20539;-72
2022/10/18 10:29:55;;;;;;;0.60;0.10;;;19.20;1.00;;;;;;4937282;29;20452;-71
2022/10/18 10:32:29;;;;;;;0.60;0.13;;;19.00;1.00;;;;;;4950336;28;20463;-72
2022/10/18 10:34:58;;;;;;;0.60;0.10;;;19.30;1.00;;;;;;4943079;29;20448;-72
2022/10/18 10:37:36;;;;;;;0.60;0.13;;;19.30;1.00;;;;;;4935588;29;20511;-72
2022/10/18 10:40:19;;;;;;;0.60;0.10;;;19.30;1.00;;;;;;4935555;29;21187;-73
2022/10/18 10:43:06;;;;;;;0.60;0.20;;;19.30;1.00;;;;;;4939414;29;20486;-71
2022/10/18 10:46:00;;;;;;;0.60;0.10;;;19.30;1.00;;;;;;4938163;29;20600;-73
2022/10/18 10:48:30;;;;;;;0.60;0.10;;;19.40;1.00;;;;;;4945157;29;20818;-72
2022/10/18 10:51:03;;;;;;;0.60;0.10;;;19.50;1.00;;;;;;4952135;28;20474;-70
2022/10/18 10:53:45;;;;;;;0.60;0.10;;;19.50;1.00;;;;;;4953171;29;20501;-71
2022/10/18 10:56:32;;;;;;;0.60;0.10;;;19.50;1.00;;;;;;4952021;29;20443;-72
2022/10/18 10:59:13;;;;;;;0.60;0.20;;;19.50;1.00;;;;;;4948801;29;20474;-72
2022/10/18 11:01:42;;;;;;;0.60;0.10;;;19.60;1.00;;;;;;4953936;28;20562;-72
2022/10/18 11:04:26;;;;;;;0.60;0.10;;;19.70;1.00;;;;;;4958213;29;20481;-73
2022/10/18 11:07:04;;;;;;;0.60;0.10;;;19.70;1.00;;;;;;4957801;29;20478;-73
2022/10/18 11:09:48;;;;;;;0.60;0.10;;;19.80;1.00;;;;;;4958152;29;20953;-74
2022/10/18 11:12:33;;;;;;;0.60;0.20;;;19.80;1.00;;;;;;4947958;29;20776;-72
2022/10/18 11:15:16;;;;;;;0.60;0.10;;;19.80;1.00;;;;;;4954622;29;20526;-70
2022/10/18 11:17:51;;;;;;;0.60;0.10;;;19.90;1.00;;;;;;4957843;29;20434;-74
2022/10/18 11:20:23;;;;;;;0.60;0.10;;;19.90;1.00;;;;;;4957363;29;20450;-72
2022/10/18 11:23:00;;;;;;;0.60;0.10;;;19.80;1.00;;;;;;4947998;29;20467;-72
2022/10/18 11:25:43;;;;;;;0.60;0.10;;;19.80;1.00;;;;;;4955740;29;20451;-74
2022/10/18 11:28:21;;;;;;;0.60;0.10;;;19.80;1.00;;;;;;4957090;29;20856;-77
2022/10/18 11:31:02;;;;;;;0.60;0.10;;;19.90;1.00;;;;;;4953592;29;20491;-74
2022/10/18 11:33:42;;;;;;;0.60;0.10;;;19.90;1.00;;;;;;4954488;29;21213;-74
2022/10/18 11:36:36;;;;;;;0.60;0.10;;;19.90;1.00;;;;;;4953748;29;20454;-74
2022/10/18 11:39:18;;;;;;;0.60;0.10;;;20.00;1.00;;;;;;4949411;29;21000;-75
2022/10/18 11:41:54;;;;;;;0.60;0.10;;;20.20;1.00;;;;;;4955836;28;20808;-74
2022/10/18 11:44:29;;;;;;;0.60;0.10;;;20.10;1.00;;;;;;4955774;29;20462;-74
2022/10/18 11:47:05;;;;;;;0.60;0.10;;;20.20;1.00;;;;;;4957427;29;20486;-75
2022/10/18 11:49:52;;;;;;;0.60;0.10;;;20.20;1.00;;;;;;4952037;29;20928;-74
2022/10/18 11:52:29;;;;;;;0.60;0.20;;;20.30;1.00;;;;;;4955556;29;20455;-73
2022/10/18 11:55:16;;;;;;;0.60;0.20;;;20.30;1.00;;;;;;4959309;29;20465;-74
2022/10/18 11:57:51;;;;;;;0.60;0.20;;;20.30;1.00;;;;;;4952482;29;20420;-76
2022/10/18 12:00:28;;;;;;;0.60;0.10;;;20.30;1.00;;;;;;4952259;29;21186;-75
2022/10/18 12:03:15;;;;;;;0.60;0.10;;;20.30;1.00;;;;;;4945446;28;20503;-75
2022/10/18 12:05:45;;;;;;;0.60;0.10;;;20.30;1.00;;;;;;4930746;29;20896;-74
2022/10/18 12:08:17;;;;;;;0.60;0.10;;;20.40;1.00;;;;;;4942768;29;20483;-74
2022/10/18 12:10:51;;;;;;;0.60;0.20;;;20.50;1.00;;;;;;4939036;29;20476;-74
2022/10/18 12:13:39;;;;;;;0.60;0.10;;;20.50;1.00;;;;;;4937308;29;20961;-76
2022/10/18 12:16:09;;;;;;;0.60;0.10;;;20.70;1.00;;;;;;4948090;29;20481;-74
2022/10/18 12:18:49;;;;;;;0.60;0.20;;;20.70;1.00;;;;;;4942369;29;20448;-74
2022/10/18 12:21:21;;;;;;;0.60;0.20;;;20.60;1.00;;;;;;4953164;28;21013;-74
2022/10/18 12:23:55;;;;;;;0.60;0.10;;;20.70;1.00;;;;;;4952855;29;20481;-75
2022/10/18 12:26:24;;;;;;;0.60;0.20;;;20.50;1.00;;;;;;4952038;29;20494;-72
2022/10/18 12:29:07;;;;;;;0.60;0.10;;;20.40;1.00;;;;;;4957910;29;20446;-72
2022/10/18 12:31:42;;;;;;;0.60;0.10;;;20.20;1.00;;;;;;4951348;28;20482;-72
2022/10/18 12:34:32;;;;;;;0.60;0.20;;;20.20;1.00;;;;;;4958204;29;20439;-70
2022/10/18 12:37:24;;;;;;;0.60;0.10;;;20.10;1.00;;;;;;4956245;29;20511;-73
2022/10/18 12:39:57;;;;;;;0.60;0.10;;;20.10;1.00;;;;;;4960835;29;20447;-72
2022/10/18 12:42:43;;;;;;;0.60;0.10;;;20.10;1.00;;;;;;4964270;28;20467;-73
2022/10/18 12:45:26;;;;;;;0.60;0.10;;;20.10;1.00;;;;;;4958303;29;20511;-71
2022/10/18 12:47:55;;;;;;;0.60;0.20;;;20.10;1.00;;;;;;4958361;29;20522;-70
2022/10/18 12:50:31;;;;;;;0.60;0.10;;;20.20;1.00;;;;;;4960544;29;20455;-73
2022/10/18 12:53:06;;;;;;;0.60;0.10;;;20.20;1.00;;;;;;4961620;29;20521;-72
2022/10/18 12:55:37;;;;;;;0.60;0.10;;;20.30;1.00;;;;;;4965287;29;20478;-74
2022/10/18 12:58:23;;;;;;;0.60;0.10;;;20.40;1.00;;;;;;4963240;29;20447;-71
2022/10/18 13:00:56;;;;;;;0.60;0.10;;;20.50;1.00;;;;;;4958447;29;20483;-71
2022/10/18 13:03:50;;;;;;;0.60;0.10;;;20.50;1.00;;;;;;4955714;29;20467;-73
2022/10/18 13:06:18;;;;;;;0.60;0.10;;;20.50;1.00;;;;;;4945523;29;20464;-71
2022/10/18 13:08:49;;;;;;;0.60;0.10;;;20.50;1.00;;;;;;4938342;29;20557;-71
2022/10/18 13:11:35;;;;;;;0.60;0.10;;;20.50;1.00;;;;;;4947914;29;20538;-71
2022/10/18 13:14:43;;;;;;;0.60;0.10;;;20.50;1.00;;;;;;4957306;29;20453;-72
2022/10/18 13:17:42;;;;;;;0.60;0.10;;;20.00;1.00;;;;;;4958848;29;20442;-72
2022/10/18 13:20:21;;;;;;;0.60;0.10;;;20.40;1.00;;;;;;4957579;29;20972;-72
2022/10/18 13:23:05;;;;;;;0.60;0.10;;;20.30;1.00;;;;;;4956567;29;20454;-70
2022/10/18 13:25:45;;;;;;;0.60;0.10;;;20.30;1.00;;;;;;4953376;28;20447;-71
2022/10/18 13:28:24;;;;;;;0.60;0.10;;;20.30;1.00;;;;;;4954509;29;20534;-71
2022/10/18 13:30:57;;;;;;;0.60;0.10;;;20.30;1.00;;;;;;4957544;28;20672;-73
2022/10/18 13:33:32;;;;;;;0.60;0.10;;;20.30;1.00;;;;;;4956086;29;20506;-73
2022/10/18 13:36:01;;;;;;;0.60;0.10;;;20.20;1.00;;;;;;4956896;29;20465;-72
2022/10/18 13:38:46;;;;;;;0.60;0.10;;;20.30;1.00;;;;;;4956220;29;20791;-73
2022/10/18 13:41:17;;;;;;;0.60;0.10;;;20.30;1.00;;;;;;4957032;28;20462;-71
2022/10/18 13:44:22;;;;;;;0.60;0.10;;;20.30;1.00;;;;;;4955390;29;20461;-73
2022/10/18 13:47:32;;;;;;;0.60;0.10;;;20.30;1.00;;;;;;4953297;29;20451;-72
2022/10/18 13:50:22;;;;;;;0.60;0.20;;;20.30;1.00;;;;;;4954438;29;20443;-72
2022/10/18 13:53:21;;;;;;;0.60;0.10;;;20.30;1.00;;;;;;4954046;29;20459;-73
2022/10/18 13:56:15;;;;;;;0.60;0.10;;;20.30;1.00;;;;;;4953826;29;20486;-72
2022/10/18 13:58:50;;;;;;;0.60;0.20;;;20.30;1.00;;;;;;4954806;29;20419;-74
2022/10/18 14:01:46;;;;;;;0.60;0.10;;;20.40;1.00;;;;;;4954885;29;20502;-71
2022/10/18 14:04:42;;;;;;;0.60;0.10;;;20.50;1.00;;;;;;4952881;29;20462;-70
2022/10/18 14:07:12;;;;;;;0.60;0.10;;;20.60;1.00;;;;;;4939810;29;20462;-73
2022/10/18 14:09:47;;;;;;;0.60;0.10;;;20.70;1.00;;;;;;4936190;29;20483;-71
2022/10/18 14:12:28;;;;;;;0.60;0.10;;;20.90;1.00;;;;;;4953136;29;20467;-71
2022/10/18 14:15:05;;;;;;;0.60;0.10;;;20.90;1.00;;;;;;4954857;29;20447;-72
2022/10/18 14:17:39;;;;;;;0.60;0.10;;;21.00;1.00;;;;;;4954125;29;20454;-71
2022/10/18 14:20:18;;;;;;;0.60;0.10;;;21.00;1.00;;;;;;4952731;29;20486;-72
2022/10/18 14:22:53;;;;;;;0.60;0.10;;;21.00;1.00;;;;;;4950118;28;20506;-73
2022/10/18 14:25:27;;;;;;;0.60;0.20;;;20.90;1.00;;;;;;4952124;29;20462;-71
2022/10/18 14:28:05;;;;;;;0.60;0.10;;;20.90;1.00;;;;;;4954906;29;20498;-71
2022/10/18 14:30:51;;;;;;;0.60;0.10;;;20.90;1.00;;;;;;4951739;28;20455;-72
2022/10/18 14:33:28;;;;;;;0.60;0.13;;;20.90;1.00;;;;;;4953611;29;20545;-72
2022/10/18 14:36:02;;;;;;;0.60;0.20;;;20.90;1.00;;;;;;4954052;29;20509;-72
2022/10/18 14:38:31;;;;;;;0.60;0.10;;;21.00;1.00;;;;;;4953381;29;20502;-72
2022/10/18 14:41:07;;;;;;;0.60;0.10;;;21.10;1.00;;;;;;4953308;28;21014;-72
2022/10/18 14:43:35;;;;;;;0.60;0.10;;;22.20;1.00;;;;;;4944807;29;20562;-71
2022/10/18 14:46:10;;;;;;;0.60;0.10;;;21.20;1.00;;;;;;4953314;29;20463;-72
2022/10/18 14:48:38;;;;;;;0.60;0.13;;;21.20;1.00;;;;;;4954021;29;20482;-71
2022/10/18 14:51:09;;;;;;;0.60;0.10;;;21.50;1.00;;;;;;4973831;23;20506;-74
2022/10/18 14:53:40;;;;;;;0.60;0.10;;;21.30;1.00;;;;;;4968610;28;20481;-74
2022/10/18 14:56:23;;;;;;;0.60;0.10;;;21.30;1.00;;;;;;4967885;28;20573;-71
2022/10/18 14:58:52;;;;;;;0.60;0.10;;;21.30;1.00;;;;;;4966882;28;20438;-73
2022/10/18 15:01:22;;;;;;;0.60;0.10;;;21.20;1.00;;;;;;4958632;28;20501;-73
2022/10/18 15:03:55;;;;;;;0.60;0.10;;;21.20;1.00;;;;;;4954943;29;20443;-73
2022/10/18 15:06:22;;;;;;;0.60;0.10;;;21.20;1.00;;;;;;4946994;29;20443;-72
2022/10/18 15:08:56;;;;;;;0.60;0.10;;;21.20;1.00;;;;;;4950363;29;20476;-72
2022/10/18 15:11:25;;;;;;;0.60;0.10;;;21.10;1.00;;;;;;4939742;29;20468;-74
2022/10/18 15:13:55;;;;;;;0.60;0.10;;;21.10;1.00;;;;;;4956731;29;20837;-74
2022/10/18 15:16:25;;;;;;;0.60;0.10;;;21.10;1.00;;;;;;4959000;29;20443;-74
2022/10/18 15:19:01;;;;;;;0.60;0.10;;;21.10;1.00;;;;;;4959888;29;20443;-75
2022/10/18 15:21:31;;;;;;;0.60;0.13;;;21.00;1.00;;;;;;4956098;28;20529;-74
2022/10/18 15:24:21;;;;;;;0.60;0.13;;;21.00;1.00;;;;;;4957341;29;20450;-72
2022/10/18 15:26:50;;;;;;;0.60;0.10;;;21.00;1.00;;;;;;4953637;29;20506;-74
2022/10/18 15:29:19;;;;;;;0.60;0.10;;;21.00;1.00;;;;;;4949464;29;20486;-73
2022/10/18 15:31:49;;;;;;;0.60;0.10;;;21.00;1.00;;;;;;4946300;29;20485;-73
2022/10/18 15:34:21;;;;;;;0.60;0.10;;;20.90;1.00;;;;;;4953065;29;20466;-74
2022/10/18 15:36:50;;;;;;;0.60;0.10;;;20.80;1.00;;;;;;4953572;29;20510;-73
2022/10/18 15:39:22;;;;;;;0.60;0.10;;;20.80;1.00;;;;;;4953523;29;20450;-73
2022/10/18 15:41:51;;;;;;;0.60;0.10;;;20.60;1.00;;;;;;4948260;28;20484;-73
2022/10/18 15:44:23;;;;;;;0.60;0.10;;;20.70;1.00;;;;;;4942303;29;20490;-74
2022/10/18 15:46:53;;;;;;;0.60;0.10;;;20.60;1.00;;;;;;4953745;29;20503;-73
2022/10/18 15:49:57;;;;;;;0.60;0.10;;;20.50;1.00;;;;;;4955807;28;20490;-73
2022/10/18 15:52:47;;;;;;;0.60;0.10;;;20.50;1.00;;;;;;4943086;29;20454;-74
2022/10/18 15:55:55;;;;;;;0.60;0.10;;;20.40;1.00;;;;;;4937023;29;20460;-73
2022/10/18 15:58:27;;;;;;;0.60;0.10;;;20.40;1.00;;;;;;4937668;29;20463;-74
2022/10/18 16:00:59;;;;;;;0.60;0.10;;;20.40;1.00;;;;;;4937701;29;20452;-76
2022/10/18 16:03:28;;;;;;;0.60;0.10;;;20.40;1.00;;;;;;4955884;29;20506;-74
2022/10/18 16:06:02;;;;;;;0.60;0.10;;;20.40;1.00;;;;;;4957077;29;20483;-74
2022/10/18 16:08:31;;;;;;;0.60;0.10;;;20.40;1.00;;;;;;4957431;29;20493;-74
2022/10/18 16:10:59;;;;;;;0.60;0.20;;;20.40;1.00;;;;;;4949249;29;20618;-75
2022/10/18 16:13:28;;;;;;;0.60;0.10;;;20.30;1.00;;;;;;4956044;29;20522;-74
2022/10/18 16:15:58;;;;;;;0.60;0.10;;;20.30;1.00;;;;;;4956575;29;20584;-75
2022/10/18 16:18:27;;;;;;;0.60;0.10;;;20.20;1.00;;;;;;4956040;29;20459;-76
2022/10/18 16:20:54;;;;;;;0.60;0.10;;;20.20;1.00;;;;;;4956543;29;20499;-76
2022/10/18 16:23:24;;;;;;;0.60;0.10;;;20.20;1.00;;;;;;4955543;29;20443;-76
2022/10/18 16:25:52;;;;;;;0.60;0.10;;;20.20;1.00;;;;;;4956998;29;20832;-75
2022/10/18 16:28:22;;;;;;;0.60;0.10;;;20.10;1.00;;;;;;4956873;29;20451;-75
2022/10/18 16:31:00;;;;;;;0.60;0.10;;;20.10;1.00;;;;;;4956326;29;20825;-76
2022/10/18 16:33:29;;;;;;;0.70;0.20;;;20.00;1.00;;;;;;4953056;29;20525;-77
2022/10/18 16:35:57;;;;;;;0.60;0.20;;;20.00;1.00;;;;;;4945891;29;20282;-76
2022/10/18 16:38:33;;;;;;;0.60;0.10;;;20.00;1.00;;;;;;4946863;29;20444;-74
2022/10/18 16:41:03;;;;;;;0.60;0.10;;;19.90;1.00;;;;;;4936501;29;20500;-74
2022/10/18 16:43:31;;;;;;;0.60;0.10;;;19.90;1.00;;;;;;4953299;29;20451;-76
2022/10/18 16:46:02;;;;;;;0.60;0.10;;;19.80;1.00;;;;;;4955664;29;20984;-77
2022/10/18 16:48:30;;;;;;;0.60;0.10;;;19.80;1.00;;;;;;4955713;28;20511;-76
2022/10/18 16:50:58;;;;;;;0.60;0.10;;;19.70;1.00;;;;;;4955918;28;20479;-74
2022/10/18 16:53:26;;;;;;;0.60;0.13;;;19.60;1.00;;;;;;4955522;29;20458;-75
2022/10/18 16:55:57;;;;;;;0.60;0.10;;;19.60;1.00;;;;;;4950637;29;20460;-76
2022/10/18 16:58:27;;;;;;;0.60;0.10;;;19.50;1.00;;;;;;4945978;29;20448;-76
2022/10/18 17:00:55;;;;;;;0.60;0.10;;;19.40;1.00;;;;;;4954139;28;20463;-76
2022/10/18 17:03:25;;;;;;;0.60;0.20;;;19.40;1.00;;;;;;4946170;29;20463;-76
2022/10/18 17:05:55;;;;;;;0.60;0.10;;;19.40;1.00;;;;;;4955762;29;20466;-74
2022/10/18 17:08:24;;;;;;;0.70;0.40;;;19.40;1.00;;;;;;4955729;29;20502;-76
2022/10/18 17:10:55;;;;;;;0.60;0.13;;;19.30;1.00;;;;;;4940760;29;20488;-77
2022/10/18 17:13:25;;;;;;;0.60;0.10;;;19.30;1.00;;;;;;4955345;29;20458;-77
2022/10/18 17:15:53;;;;;;;0.60;0.10;;;19.20;1.00;;;;;;4955604;29;20443;-76
2022/10/18 17:18:25;;;;;;;0.60;0.10;;;19.20;1.00;;;;;;4955561;29;20450;-76
2022/10/18 17:20:55;;;;;;;0.60;0.10;;;19.10;1.00;;;;;;4955577;28;20467;-76
2022/10/18 17:23:23;;;;;;;0.60;0.10;;;19.10;1.00;;;;;;4953767;29;21008;-75
2022/10/18 17:25:52;;;;;;;0.60;0.10;;;19.00;1.00;;;;;;4945394;29;20524;-77
2022/10/18 17:28:40;;;;;;;0.60;0.20;;;18.90;1.00;;;;;;4934959;29;20438;-78
2022/10/18 17:31:08;;;;;;;0.60;0.10;;;19.00;1.00;;;;;;4935539;29;20515;-77
2022/10/18 17:33:36;;;;;;;0.60;0.20;;;19.00;1.00;;;;;;4952031;29;20534;-76